KCEC/CEC METAR and TAF weather

Enter ICAO airport designator
Station Type Date Time Source
KCEC METAR 2019/02/17 07:56 UTC NOAA

KCEC 170756Z AUTO 00000KT 10SM CLR 03/02 A3007 RMK AO2 RAB11E34 SLP184 P0003 T00280022 400890028


Station Type Date Time Source
KCEC Decoded METAR 2019/02/17 07:56 UTC NOAA

CRESCENT CITY MC NAMARA, CA, United States (KCEC) 41-47N 124-14W
Feb 17, 2019 - 02:56 AM EST / 2019.02.17 0756 UTC
Wind: Calm:0
Visibility: 10 mile(s):0
Sky conditions: clear
Precipitation last hour: 0.03 inches
Temperature: 37.0 F (2.8 C)
Dew Point: 36.0 F (2.2 C)
Relative Humidity: 95%
Pressure (altimeter): 30.07 in. Hg (1018 hPa)
ob: KCEC 170756Z AUTO 00000KT 10SM CLR 03/02 A3007 RMK AO2 RAB11E34 SLP184 P0003 T00280022 400890028
cycle: 8

Station Type Date Time Source
KCEC TAF 2019/02/17 06:46 UTC NOAA

TAF KCEC 170544Z 1706/1806 09005KT P6SM -RA FEW015 BKN035 OVC045
TEMPO 1706/1710 4SM -SHRA BKN025
FM171600 34006KT P6SM SCT015 BKN060
FM172200 35012KT P6SM SCT030
FM180400 03005KT P6SM SKC


Example: see airport list